Essex, Maryland
Current Conditions -  °F | °C
As of 6:45 AM on Saturday 22 Nov 2014 (Local Time) from KMTN Reporting Station
Clear Clear  
Wind Chill: 21°   Ceiling: Unl
Heat Index: 21°   Visibility: 10mi
Dew Point: 18°   Wind: 0mph
Humidity: 86%   Direction: NA
Pressure: 30.55"   Gusts: NA
Location:  39.31°N, 76.48°W
Report Text: KMTN 221145Z 00000KT 10SM SKC M06/M08 A3055
Loading
Personal Weather Stations






























Interactive Weather Map New forecast layout! Learn more

10-Day Weather Forecast

Advertisements
Track Severe Weather on mobile